sensor_id;sensor_type;location;lat;lon;timestamp;pressure;altitude;pressure_sealevel;temperature;humidity
15884;BME280;8040;50.254;10.960;2023-05-02T00:00:36;98212.84;;;10.36;79.01
15884;BME280;8040;50.254;10.960;2023-05-02T00:03:03;98179.34;;;10.14;78.50
15884;BME280;8040;50.254;10.960;2023-05-02T00:05:29;98182.31;;;10.17;78.29
15884;BME280;8040;50.254;10.960;2023-05-02T00:07:55;98191.13;;;10.23;79.18
15884;BME280;8040;50.254;10.960;2023-05-02T00:10:20;98196.97;;;10.30;78.73
15884;BME280;8040;50.254;10.960;2023-05-02T00:12:46;98184.19;;;10.17;79.18
15884;BME280;8040;50.254;10.960;2023-05-02T00:15:11;98205.09;;;10.30;79.66
15884;BME280;8040;50.254;10.960;2023-05-02T00:17:39;98181.19;;;10.18;79.16
15884;BME280;8040;50.254;10.960;2023-05-02T00:20:06;98190.63;;;10.21;79.23
15884;BME280;8040;50.254;10.960;2023-05-02T00:22:33;98204.53;;;10.33;78.67
15884;BME280;8040;50.254;10.960;2023-05-02T00:24:59;98170.22;;;10.10;79.17
15884;BME280;8040;50.254;10.960;2023-05-02T00:27:24;98204.59;;;10.28;79.94
15884;BME280;8040;50.254;10.960;2023-05-02T00:29:50;98167.16;;;9.98;80.93
15884;BME280;8040;50.254;10.960;2023-05-02T00:32:17;98192.81;;;10.05;81.60
15884;BME280;8040;50.254;10.960;2023-05-02T00:34:43;98154.78;;;9.92;81.70
15884;BME280;8040;50.254;10.960;2023-05-02T00:37:08;98201.78;;;10.19;81.89
15884;BME280;8040;50.254;10.960;2023-05-02T00:39:34;98178.38;;;10.10;82.03
15884;BME280;8040;50.254;10.960;2023-05-02T00:42:00;98142.16;;;9.87;81.76
15884;BME280;8040;50.254;10.960;2023-05-02T00:44:26;98135.00;;;9.78;81.49
15884;BME280;8040;50.254;10.960;2023-05-02T00:46:53;98174.19;;;9.99;81.63
15884;BME280;8040;50.254;10.960;2023-05-02T00:49:18;98197.75;;;10.17;81.86
15884;BME280;8040;50.254;10.960;2023-05-02T00:51:44;98194.22;;;10.16;81.81
15884;BME280;8040;50.254;10.960;2023-05-02T00:54:11;98165.81;;;10.14;81.75
15884;BME280;8040;50.254;10.960;2023-05-02T00:56:36;98212.31;;;10.34;82.25
15884;BME280;8040;50.254;10.960;2023-05-02T00:59:03;98187.47;;;10.14;81.60
15884;BME280;8040;50.254;10.960;2023-05-02T01:01:35;98218.44;;;10.26;80.30
15884;BME280;8040;50.254;10.960;2023-05-02T01:12:46;98200.03;;;10.10;80.58
15884;BME280;8040;50.254;10.960;2023-05-02T01:15:18;98192.84;;;10.00;80.09
15884;BME280;8040;50.254;10.960;2023-05-02T01:17:46;98193.72;;;9.96;81.02
15884;BME280;8040;50.254;10.960;2023-05-02T01:20:16;98165.22;;;9.85;80.87
15884;BME280;8040;50.254;10.960;2023-05-02T01:22:43;98156.16;;;9.76;80.34
15884;BME280;8040;50.254;10.960;2023-05-02T01:28:15;98203.84;;;9.90;80.04
15884;BME280;8040;50.254;10.960;2023-05-02T01:30:44;98176.72;;;9.77;79.82
15884;BME280;8040;50.254;10.960;2023-05-02T01:33:13;98174.00;;;9.77;79.70
15884;BME280;8040;50.254;10.960;2023-05-02T01:35:41;98189.19;;;9.78;80.42
15884;BME280;8040;50.254;10.960;2023-05-02T01:38:08;98214.19;;;9.88;81.19
15884;BME280;8040;50.254;10.960;2023-05-02T01:40:38;98161.22;;;9.64;82.17
15884;BME280;8040;50.254;10.960;2023-05-02T01:43:06;98170.28;;;9.73;82.30
15884;BME280;8040;50.254;10.960;2023-05-02T01:45:33;98222.28;;;10.07;82.33
15884;BME280;8040;50.254;10.960;2023-05-02T01:48:00;98193.84;;;9.91;82.14
15884;BME280;8040;50.254;10.960;2023-05-02T01:50:27;98194.19;;;9.84;81.97
15884;BME280;8040;50.254;10.960;2023-05-02T01:52:53;98203.94;;;9.85;81.83
15884;BME280;8040;50.254;10.960;2023-05-02T01:55:20;98203.78;;;9.77;81.43
15884;BME280;8040;50.254;10.960;2023-05-02T01:57:47;98204.25;;;9.65;81.56
15884;BME280;8040;50.254;10.960;2023-05-02T02:00:16;98173.75;;;9.41;82.80
15884;BME280;8040;50.254;10.960;2023-05-02T02:02:44;98187.94;;;9.52;82.61
15884;BME280;8040;50.254;10.960;2023-05-02T02:05:11;98212.09;;;9.67;82.74
15884;BME280;8040;50.254;10.960;2023-05-02T02:07:38;98221.22;;;9.71;82.27
15884;BME280;8040;50.254;10.960;2023-05-02T02:10:03;98232.44;;;9.64;81.41
15884;BME280;8040;50.254;10.960;2023-05-02T02:12:43;98224.69;;;9.58;81.99
15884;BME280;8040;50.254;10.960;2023-05-02T02:15:17;98215.34;;;9.50;82.29
15884;BME280;8040;50.254;10.960;2023-05-02T02:18:13;98251.41;;;9.64;82.10
15884;BME280;8040;50.254;10.960;2023-05-02T02:20:43;98253.97;;;9.56;81.59
15884;BME280;8040;50.254;10.960;2023-05-02T02:23:12;98193.19;;;9.06;81.76
15884;BME280;8040;50.254;10.960;2023-05-02T02:25:39;98240.19;;;9.34;82.10
15884;BME280;8040;50.254;10.960;2023-05-02T02:28:06;98242.47;;;9.45;82.35
15884;BME280;8040;50.254;10.960;2023-05-02T02:30:31;98234.41;;;9.40;82.30
15884;BME280;8040;50.254;10.960;2023-05-02T02:32:57;98215.09;;;9.28;82.01
15884;BME280;8040;50.254;10.960;2023-05-02T02:35:26;98213.72;;;9.31;82.08
15884;BME280;8040;50.254;10.960;2023-05-02T02:38:22;98246.13;;;9.54;82.14
15884;BME280;8040;50.254;10.960;2023-05-02T02:40:56;98228.50;;;9.38;82.39
15884;BME280;8040;50.254;10.960;2023-05-02T02:48:38;98266.25;;;9.67;82.14
15884;BME280;8040;50.254;10.960;2023-05-02T02:51:10;98243.94;;;9.56;81.51
15884;BME280;8040;50.254;10.960;2023-05-02T02:53:49;98282.13;;;9.73;81.74
15884;BME280;8040;50.254;10.960;2023-05-02T02:56:23;98261.34;;;9.69;81.05
15884;BME280;8040;50.254;10.960;2023-05-02T02:59:03;98259.75;;;9.68;81.45
15884;BME280;8040;50.254;10.960;2023-05-02T03:01:30;98272.91;;;9.74;81.07
15884;BME280;8040;50.254;10.960;2023-05-02T03:03:57;98278.03;;;9.76;81.46
15884;BME280;8040;50.254;10.960;2023-05-02T03:06:22;98266.97;;;9.72;80.72
15884;BME280;8040;50.254;10.960;2023-05-02T03:08:48;98260.31;;;9.65;80.91
15884;BME280;8040;50.254;10.960;2023-05-02T03:11:14;98275.09;;;9.72;80.69
15884;BME280;8040;50.254;10.960;2023-05-02T03:13:39;98303.31;;;9.90;81.22
15884;BME280;8040;50.254;10.960;2023-05-02T03:16:24;98311.19;;;9.86;81.33
15884;BME280;8040;50.254;10.960;2023-05-02T03:18:53;98274.88;;;9.69;80.82
15884;BME280;8040;50.254;10.960;2023-05-02T03:21:18;98291.56;;;9.76;81.12
15884;BME280;8040;50.254;10.960;2023-05-02T03:23:44;98253.34;;;9.59;80.14
15884;BME280;8040;50.254;10.960;2023-05-02T03:26:09;98275.50;;;9.66;81.42
15884;BME280;8040;50.254;10.960;2023-05-02T03:28:34;98286.75;;;9.73;81.07
15884;BME280;8040;50.254;10.960;2023-05-02T03:31:00;98272.78;;;9.66;81.14
15884;BME280;8040;50.254;10.960;2023-05-02T03:33:25;98279.28;;;9.65;80.66
15884;BME280;8040;50.254;10.960;2023-05-02T03:35:51;98308.38;;;9.78;81.73
15884;BME280;8040;50.254;10.960;2023-05-02T03:38:16;98306.22;;;9.75;81.48
15884;BME280;8040;50.254;10.960;2023-05-02T03:40:41;98288.72;;;9.67;81.35
15884;BME280;8040;50.254;10.960;2023-05-02T03:43:07;98307.91;;;9.89;81.67
15884;BME280;8040;50.254;10.960;2023-05-02T03:45:33;98287.53;;;9.73;81.07
15884;BME280;8040;50.254;10.960;2023-05-02T03:47:58;98287.63;;;9.68;81.95
15884;BME280;8040;50.254;10.960;2023-05-02T03:50:24;98304.47;;;9.84;81.17
15884;BME280;8040;50.254;10.960;2023-05-02T03:52:49;98277.88;;;9.67;80.61
15884;BME280;8040;50.254;10.960;2023-05-02T03:55:14;98283.00;;;9.69;80.93
15884;BME280;8040;50.254;10.960;2023-05-02T03:57:40;98308.78;;;9.85;80.33
15884;BME280;8040;50.254;10.960;2023-05-02T04:00:06;98319.47;;;9.95;80.43
15884;BME280;8040;50.254;10.960;2023-05-02T04:02:31;98312.81;;;9.87;80.72
15884;BME280;8040;50.254;10.960;2023-05-02T04:04:57;98324.38;;;9.93;79.44
15884;BME280;8040;50.254;10.960;2023-05-02T04:07:22;98325.56;;;9.87;79.09
15884;BME280;8040;50.254;10.960;2023-05-02T04:09:50;98318.88;;;9.79;79.49
15884;BME280;8040;50.254;10.960;2023-05-02T04:12:15;98313.63;;;9.69;79.66
15884;BME280;8040;50.254;10.960;2023-05-02T04:14:40;98308.94;;;9.75;79.68
15884;BME280;8040;50.254;10.960;2023-05-02T04:17:06;98315.06;;;9.80;79.76
15884;BME280;8040;50.254;10.960;2023-05-02T04:19:31;98324.16;;;9.89;80.38
15884;BME280;8040;50.254;10.960;2023-05-02T04:21:57;98334.06;;;9.99;79.46
15884;BME280;8040;50.254;10.960;2023-05-02T04:24:23;98344.59;;;10.00;79.95
15884;BME280;8040;50.254;10.960;2023-05-02T04:26:49;98332.78;;;9.91;80.13
15884;BME280;8040;50.254;10.960;2023-05-02T04:29:14;98327.91;;;9.93;79.96
15884;BME280;8040;50.254;10.960;2023-05-02T04:31:40;98341.69;;;9.97;80.15
15884;BME280;8040;50.254;10.960;2023-05-02T04:34:06;98335.94;;;9.98;79.73
15884;BME280;8040;50.254;10.960;2023-05-02T04:36:32;98330.31;;;9.95;79.85
15884;BME280;8040;50.254;10.960;2023-05-02T04:38:58;98339.25;;;9.95;78.81
15884;BME280;8040;50.254;10.960;2023-05-02T04:41:23;98358.94;;;10.01;79.01
15884;BME280;8040;50.254;10.960;2023-05-02T04:43:49;98370.25;;;10.08;78.96
15884;BME280;8040;50.254;10.960;2023-05-02T04:46:16;98323.72;;;9.82;79.05
15884;BME280;8040;50.254;10.960;2023-05-02T04:48:42;98357.06;;;10.01;78.42
15884;BME280;8040;50.254;10.960;2023-05-02T04:51:08;98357.63;;;9.98;78.84
15884;BME280;8040;50.254;10.960;2023-05-02T04:53:34;98367.78;;;10.11;77.84
15884;BME280;8040;50.254;10.960;2023-05-02T04:56:00;98380.94;;;10.18;78.13
15884;BME280;8040;50.254;10.960;2023-05-02T04:58:25;98380.81;;;10.09;77.94
15884;BME280;8040;50.254;10.960;2023-05-02T05:00:51;98400.53;;;10.15;76.93
15884;BME280;8040;50.254;10.960;2023-05-02T05:03:16;98401.84;;;10.17;77.35
15884;BME280;8040;50.254;10.960;2023-05-02T05:05:41;98383.22;;;10.11;77.26
15884;BME280;8040;50.254;10.960;2023-05-02T05:08:07;98411.22;;;10.25;77.70
15884;BME280;8040;50.254;10.960;2023-05-02T05:10:32;98409.16;;;10.35;77.77
15884;BME280;8040;50.254;10.960;2023-05-02T05:12:58;98374.34;;;10.24;77.76
15884;BME280;8040;50.254;10.960;2023-05-02T05:15:23;98396.41;;;10.36;76.73
15884;BME280;8040;50.254;10.960;2023-05-02T05:17:50;98420.28;;;10.52;77.54
15884;BME280;8040;50.254;10.960;2023-05-02T05:20:16;98422.22;;;10.52;77.89
15884;BME280;8040;50.254;10.960;2023-05-02T05:22:43;98426.25;;;10.54;76.76
15884;BME280;8040;50.254;10.960;2023-05-02T05:25:09;98407.53;;;10.34;76.54
15884;BME280;8040;50.254;10.960;2023-05-02T05:28:09;98442.38;;;10.46;76.02
15884;BME280;8040;50.254;10.960;2023-05-02T05:30:35;98415.75;;;10.29;76.65
15884;BME280;8040;50.254;10.960;2023-05-02T05:33:00;98397.66;;;10.25;76.87
15884;BME280;8040;50.254;10.960;2023-05-02T05:35:26;98448.44;;;10.56;76.53
15884;BME280;8040;50.254;10.960;2023-05-02T05:37:51;98435.75;;;10.52;77.11
15884;BME280;8040;50.254;10.960;2023-05-02T05:40:17;98456.19;;;10.63;77.87
15884;BME280;8040;50.254;10.960;2023-05-02T05:42:43;98426.66;;;10.43;77.50
15884;BME280;8040;50.254;10.960;2023-05-02T05:45:09;98414.56;;;10.35;77.73
15884;BME280;8040;50.254;10.960;2023-05-02T05:47:34;98446.63;;;10.52;77.47
15884;BME280;8040;50.254;10.960;2023-05-02T05:50:00;98408.72;;;10.28;77.63
15884;BME280;8040;50.254;10.960;2023-05-02T05:52:25;98446.41;;;10.48;78.06
15884;BME280;8040;50.254;10.960;2023-05-02T05:54:54;98468.38;;;10.65;78.22
15884;BME280;8040;50.254;10.960;2023-05-02T05:57:21;98437.16;;;10.49;77.90
15884;BME280;8040;50.254;10.960;2023-05-02T05:59:47;98463.75;;;10.66;77.54
15884;BME280;8040;50.254;10.960;2023-05-02T06:02:12;98442.19;;;10.56;77.70
15884;BME280;8040;50.254;10.960;2023-05-02T06:04:38;98480.97;;;10.75;77.51
15884;BME280;8040;50.254;10.960;2023-05-02T06:07:05;98436.88;;;10.51;78.23
15884;BME280;8040;50.254;10.960;2023-05-02T06:09:30;98439.81;;;10.54;77.84
15884;BME280;8040;50.254;10.960;2023-05-02T06:11:56;98472.81;;;10.75;78.85
15884;BME280;8040;50.254;10.960;2023-05-02T06:14:21;98465.56;;;10.70;78.80
15884;BME280;8040;50.254;10.960;2023-05-02T06:16:46;98456.03;;;10.73;79.28
15884;BME280;8040;50.254;10.960;2023-05-02T06:19:12;98464.13;;;10.78;78.93
15884;BME280;8040;50.254;10.960;2023-05-02T06:21:37;98474.28;;;10.86;79.03
15884;BME280;8040;50.254;10.960;2023-05-02T06:24:03;98443.66;;;10.67;79.22
15884;BME280;8040;50.254;10.960;2023-05-02T06:26:29;98466.22;;;10.81;79.39
15884;BME280;8040;50.254;10.960;2023-05-02T06:28:54;98496.19;;;11.08;79.17
15884;BME280;8040;50.254;10.960;2023-05-02T06:31:20;98499.47;;;11.05;79.06
15884;BME280;8040;50.254;10.960;2023-05-02T06:33:45;98470.09;;;10.93;78.82
15884;BME280;8040;50.254;10.960;2023-05-02T06:36:10;98498.31;;;11.11;78.45
15884;BME280;8040;50.254;10.960;2023-05-02T06:38:36;98528.56;;;11.36;78.50
15884;BME280;8040;50.254;10.960;2023-05-02T06:41:01;98498.97;;;11.21;79.33
15884;BME280;8040;50.254;10.960;2023-05-02T06:43:27;98507.22;;;11.30;79.04
15884;BME280;8040;50.254;10.960;2023-05-02T06:45:52;98477.03;;;11.18;79.78
15884;BME280;8040;50.254;10.960;2023-05-02T06:48:19;98526.88;;;11.54;79.63
15884;BME280;8040;50.254;10.960;2023-05-02T06:50:45;98517.31;;;11.43;79.36
15884;BME280;8040;50.254;10.960;2023-05-02T06:53:11;98536.81;;;11.63;79.16
15884;BME280;8040;50.254;10.960;2023-05-02T06:55:36;98529.47;;;11.64;79.34
15884;BME280;8040;50.254;10.960;2023-05-02T06:58:01;98494.59;;;11.52;79.34
15884;BME280;8040;50.254;10.960;2023-05-02T07:00:27;98517.19;;;11.66;78.78
15884;BME280;8040;50.254;10.960;2023-05-02T07:02:52;98535.44;;;11.79;78.21
15884;BME280;8040;50.254;10.960;2023-05-02T07:05:17;98558.50;;;11.95;78.64
15884;BME280;8040;50.254;10.960;2023-05-02T07:07:44;98507.75;;;11.77;78.41
15884;BME280;8040;50.254;10.960;2023-05-02T07:10:10;98524.59;;;11.93;78.14
15884;BME280;8040;50.254;10.960;2023-05-02T07:12:36;98549.66;;;12.17;78.14
15884;BME280;8040;50.254;10.960;2023-05-02T07:15:21;98542.81;;;12.19;77.79
15884;BME280;8040;50.254;10.960;2023-05-02T07:17:46;98546.63;;;12.32;77.07
15884;BME280;8040;50.254;10.960;2023-05-02T07:20:11;98526.91;;;12.26;76.28
15884;BME280;8040;50.254;10.960;2023-05-02T07:22:37;98549.06;;;12.47;75.98
15884;BME280;8040;50.254;10.960;2023-05-02T07:25:03;98561.69;;;12.78;75.52
15884;BME280;8040;50.254;10.960;2023-05-02T07:27:31;98565.13;;;12.84;74.78
15884;BME280;8040;50.254;10.960;2023-05-02T07:29:56;98573.84;;;13.08;74.79
15884;BME280;8040;50.254;10.960;2023-05-02T07:32:40;98536.22;;;13.10;73.81
15884;BME280;8040;50.254;10.960;2023-05-02T07:35:05;98581.44;;;13.33;72.34
15884;BME280;8040;50.254;10.960;2023-05-02T07:37:34;98551.16;;;13.34;71.95
15884;BME280;8040;50.254;10.960;2023-05-02T07:40:02;98554.06;;;13.38;70.51
15884;BME280;8040;50.254;10.960;2023-05-02T07:42:50;98580.06;;;13.66;70.84
15884;BME280;8040;50.254;10.960;2023-05-02T07:45:46;98560.03;;;13.70;70.39
15884;BME280;8040;50.254;10.960;2023-05-02T07:48:30;98583.78;;;14.00;70.54
15884;BME280;8040;50.254;10.960;2023-05-02T07:51:15;98525.84;;;13.64;69.18
15884;BME280;8040;50.254;10.960;2023-05-02T07:53:59;98583.06;;;13.86;68.08
15884;BME280;8040;50.254;10.960;2023-05-02T07:56:49;98592.59;;;13.97;68.13
15884;BME280;8040;50.254;10.960;2023-05-02T07:59:34;98586.63;;;13.87;68.75
15884;BME280;8040;50.254;10.960;2023-05-02T08:06:00;98581.53;;;13.72;67.35
15884;BME280;8040;50.254;10.960;2023-05-02T08:08:28;98566.19;;;13.76;68.50
15884;BME280;8040;50.254;10.960;2023-05-02T08:11:00;98562.69;;;13.84;68.40
15884;BME280;8040;50.254;10.960;2023-05-02T08:13:25;98576.84;;;13.64;68.65
15884;BME280;8040;50.254;10.960;2023-05-02T08:15:53;98591.50;;;13.76;68.20
15884;BME280;8040;50.254;10.960;2023-05-02T08:18:23;98598.63;;;13.86;68.37
15884;BME280;8040;50.254;10.960;2023-05-02T08:20:49;98606.13;;;14.02;68.13
15884;BME280;8040;50.254;10.960;2023-05-02T08:23:15;98567.53;;;13.87;66.89
15884;BME280;8040;50.254;10.960;2023-05-02T08:25:40;98566.22;;;13.84;66.99
15884;BME280;8040;50.254;10.960;2023-05-02T08:28:06;98585.91;;;14.03;66.50
15884;BME280;8040;50.254;10.960;2023-05-02T08:30:31;98608.38;;;14.09;64.97
15884;BME280;8040;50.254;10.960;2023-05-02T08:33:02;98618.03;;;14.15;65.05
15884;BME280;8040;50.254;10.960;2023-05-02T08:35:28;98602.75;;;14.05;64.08
15884;BME280;8040;50.254;10.960;2023-05-02T08:37:54;98593.72;;;13.96;64.60
15884;BME280;8040;50.254;10.960;2023-05-02T08:40:21;98613.78;;;14.22;64.29
15884;BME280;8040;50.254;10.960;2023-05-02T08:42:47;98593.47;;;14.15;64.48
15884;BME280;8040;50.254;10.960;2023-05-02T08:45:13;98576.63;;;14.13;64.52
15884;BME280;8040;50.254;10.960;2023-05-02T08:47:40;98611.66;;;14.50;64.10
15884;BME280;8040;50.254;10.960;2023-05-02T08:50:07;98609.38;;;14.43;62.65
15884;BME280;8040;50.254;10.960;2023-05-02T08:52:34;98605.84;;;14.43;63.26
15884;BME280;8040;50.254;10.960;2023-05-02T08:55:12;98633.59;;;14.75;62.98
15884;BME280;8040;50.254;10.960;2023-05-02T08:57:39;98604.50;;;14.79;62.69
15884;BME280;8040;50.254;10.960;2023-05-02T09:03:31;98625.00;;;15.24;61.07
15884;BME280;8040;50.254;10.960;2023-05-02T09:06:19;98633.22;;;15.50;61.24
15884;BME280;8040;50.254;10.960;2023-05-02T09:08:47;98612.50;;;15.49;60.01
15884;BME280;8040;50.254;10.960;2023-05-02T09:11:14;98624.56;;;15.65;59.21
15884;BME280;8040;50.254;10.960;2023-05-02T09:13:52;98634.03;;;15.84;57.75
15884;BME280;8040;50.254;10.960;2023-05-02T09:16:23;98645.91;;;15.97;55.93
15884;BME280;8040;50.254;10.960;2023-05-02T09:18:54;98643.47;;;16.12;55.05
15884;BME280;8040;50.254;10.960;2023-05-02T09:23:48;98654.69;;;16.27;55.37
15884;BME280;8040;50.254;10.960;2023-05-02T09:26:25;98618.94;;;16.32;54.54
15884;BME280;8040;50.254;10.960;2023-05-02T09:29:18;98625.72;;;16.26;53.87
15884;BME280;8040;50.254;10.960;2023-05-02T09:31:45;98633.59;;;16.45;54.49
15884;BME280;8040;50.254;10.960;2023-05-02T09:34:13;98660.59;;;16.55;54.90
15884;BME280;8040;50.254;10.960;2023-05-02T09:39:14;98650.63;;;16.50;53.49
15884;BME280;8040;50.254;10.960;2023-05-02T09:41:46;98657.97;;;16.67;53.27
15884;BME280;8040;50.254;10.960;2023-05-02T09:44:15;98650.78;;;16.54;52.40
15884;BME280;8040;50.254;10.960;2023-05-02T09:49:10;98626.47;;;16.35;52.41
15884;BME280;8040;50.254;10.960;2023-05-02T11:04:16;98650.25;;;15.89;71.71
15884;BME280;8040;50.254;10.960;2023-05-02T11:11:53;98662.75;;;16.24;69.94
15884;BME280;8040;50.254;10.960;2023-05-02T11:19:23;98692.38;;;16.85;66.74
15884;BME280;8040;50.254;10.960;2023-05-02T11:24:39;98647.91;;;16.88;66.55
15884;BME280;8040;50.254;10.960;2023-05-02T11:27:36;98682.09;;;17.40;67.27
15884;BME280;8040;50.254;10.960;2023-05-02T11:30:35;98655.66;;;17.35;64.73
15884;BME280;8040;50.254;10.960;2023-05-02T11:33:14;98675.03;;;17.39;61.65
15884;BME280;8040;50.254;10.960;2023-05-02T11:35:45;98652.28;;;16.80;59.07
15884;BME280;8040;50.254;10.960;2023-05-02T11:38:13;98636.81;;;16.30;59.51
15884;BME280;8040;50.254;10.960;2023-05-02T11:41:16;98677.88;;;16.47;62.38
15884;BME280;8040;50.254;10.960;2023-05-02T11:46:32;98647.53;;;15.98;63.65
15884;BME280;8040;50.254;10.960;2023-05-02T11:49:00;98679.91;;;15.45;61.14
15884;BME280;8040;50.254;10.960;2023-05-02T11:51:27;98653.78;;;15.22;64.36
15884;BME280;8040;50.254;10.960;2023-05-02T11:53:53;98648.16;;;15.18;64.78
15884;BME280;8040;50.254;10.960;2023-05-02T11:56:34;98676.97;;;15.58;67.43
15884;BME280;8040;50.254;10.960;2023-05-02T11:59:01;98631.00;;;15.52;66.79
15884;BME280;8040;50.254;10.960;2023-05-02T12:01:28;98672.97;;;15.90;65.96
15884;BME280;8040;50.254;10.960;2023-05-02T12:04:06;98648.03;;;15.91;65.51
15884;BME280;8040;50.254;10.960;2023-05-02T12:06:33;98672.16;;;15.81;64.28
15884;BME280;8040;50.254;10.960;2023-05-02T12:09:12;98678.59;;;15.85;64.19
15884;BME280;8040;50.254;10.960;2023-05-02T12:11:38;98700.66;;;15.63;60.76
15884;BME280;8040;50.254;10.960;2023-05-02T12:14:03;98682.84;;;15.18;61.39
15884;BME280;8040;50.254;10.960;2023-05-02T12:16:30;98694.06;;;14.99;61.62
15884;BME280;8040;50.254;10.960;2023-05-02T12:18:56;98677.94;;;14.81;63.76
15884;BME280;8040;50.254;10.960;2023-05-02T12:21:26;98667.91;;;15.24;65.53
15884;BME280;8040;50.254;10.960;2023-05-02T12:23:56;98694.22;;;15.76;63.54
15884;BME280;8040;50.254;10.960;2023-05-02T12:26:22;98665.72;;;15.94;62.64
15884;BME280;8040;50.254;10.960;2023-05-02T12:28:50;98690.75;;;16.46;61.51
15884;BME280;8040;50.254;10.960;2023-05-02T12:31:16;98663.66;;;16.53;60.36
15884;BME280;8040;50.254;10.960;2023-05-02T12:33:45;98685.31;;;16.84;60.23
15884;BME280;8040;50.254;10.960;2023-05-02T12:36:12;98653.84;;;16.52;58.80
15884;BME280;8040;50.254;10.960;2023-05-02T12:38:38;98656.53;;;16.61;61.82
15884;BME280;8040;50.254;10.960;2023-05-02T12:41:04;98662.84;;;16.61;62.44
15884;BME280;8040;50.254;10.960;2023-05-02T12:43:44;98676.31;;;16.75;59.35
15884;BME280;8040;50.254;10.960;2023-05-02T12:46:10;98694.81;;;16.86;59.15
15884;BME280;8040;50.254;10.960;2023-05-02T12:48:36;98706.63;;;17.07;58.66
15884;BME280;8040;50.254;10.960;2023-05-02T12:51:01;98678.38;;;16.86;56.01
15884;BME280;8040;50.254;10.960;2023-05-02T12:53:37;98702.59;;;17.05;56.17
15884;BME280;8040;50.254;10.960;2023-05-02T12:56:04;98673.16;;;16.93;54.79
15884;BME280;8040;50.254;10.960;2023-05-02T12:58:39;98697.97;;;16.97;54.18
15884;BME280;8040;50.254;10.960;2023-05-02T13:01:06;98684.81;;;16.90;54.48
15884;BME280;8040;50.254;10.960;2023-05-02T13:03:32;98654.09;;;16.68;55.25
15884;BME280;8040;50.254;10.960;2023-05-02T13:05:57;98710.94;;;16.88;54.42
15884;BME280;8040;50.254;10.960;2023-05-02T13:08:23;98697.56;;;16.78;56.16
15884;BME280;8040;50.254;10.960;2023-05-02T13:10:48;98672.38;;;16.55;57.36
15884;BME280;8040;50.254;10.960;2023-05-02T13:13:13;98703.06;;;16.78;57.83
15884;BME280;8040;50.254;10.960;2023-05-02T13:15:40;98701.13;;;16.78;58.92
15884;BME280;8040;50.254;10.960;2023-05-02T13:18:05;98687.13;;;16.71;59.56
15884;BME280;8040;50.254;10.960;2023-05-02T13:20:31;98703.34;;;16.85;58.98
15884;BME280;8040;50.254;10.960;2023-05-02T13:22:56;98713.09;;;17.03;57.16
15884;BME280;8040;50.254;10.960;2023-05-02T13:25:22;98665.31;;;16.83;57.06
15884;BME280;8040;50.254;10.960;2023-05-02T13:27:47;98709.19;;;17.12;56.88
15884;BME280;8040;50.254;10.960;2023-05-02T13:30:12;98710.78;;;17.13;57.39
15884;BME280;8040;50.254;10.960;2023-05-02T13:32:38;98691.84;;;17.00;57.08
15884;BME280;8040;50.254;10.960;2023-05-02T13:35:04;98664.84;;;16.81;56.73
15884;BME280;8040;50.254;10.960;2023-05-02T13:37:30;98702.09;;;17.11;57.15
15884;BME280;8040;50.254;10.960;2023-05-02T13:39:55;98680.38;;;16.98;57.00
15884;BME280;8040;50.254;10.960;2023-05-02T13:42:27;98708.19;;;17.17;57.17
15884;BME280;8040;50.254;10.960;2023-05-02T13:44:58;98713.47;;;17.22;56.97
15884;BME280;8040;50.254;10.960;2023-05-02T13:47:23;98684.75;;;17.28;56.75
15884;BME280;8040;50.254;10.960;2023-05-02T13:49:49;98696.53;;;17.57;56.38
15884;BME280;8040;50.254;10.960;2023-05-02T13:52:14;98679.19;;;17.65;56.04
15884;BME280;8040;50.254;10.960;2023-05-02T13:54:40;98705.81;;;17.85;54.46
15884;BME280;8040;50.254;10.960;2023-05-02T13:57:05;98677.03;;;17.71;52.68
15884;BME280;8040;50.254;10.960;2023-05-02T13:59:31;98687.00;;;17.75;51.69
15884;BME280;8040;50.254;10.960;2023-05-02T14:01:56;98699.38;;;17.81;51.98
15884;BME280;8040;50.254;10.960;2023-05-02T14:04:23;98661.50;;;17.54;50.64
15884;BME280;8040;50.254;10.960;2023-05-02T14:06:48;98695.97;;;17.84;50.49
15884;BME280;8040;50.254;10.960;2023-05-02T14:09:13;98694.19;;;17.88;51.14
15884;BME280;8040;50.254;10.960;2023-05-02T14:11:40;98697.50;;;17.94;51.45
15884;BME280;8040;50.254;10.960;2023-05-02T14:14:05;98659.66;;;17.67;50.52
15884;BME280;8040;50.254;10.960;2023-05-02T14:16:55;98684.47;;;17.91;50.62
15884;BME280;8040;50.254;10.960;2023-05-02T14:19:20;98633.00;;;17.47;50.47
15884;BME280;8040;50.254;10.960;2023-05-02T14:22:23;98704.28;;;17.96;49.70
15884;BME280;8040;50.254;10.960;2023-05-02T14:24:49;98723.88;;;17.86;49.65
15884;BME280;8040;50.254;10.960;2023-05-02T14:27:14;98724.66;;;17.46;49.87
15884;BME280;8040;50.254;10.960;2023-05-02T14:29:46;98725.78;;;17.16;50.61
15884;BME280;8040;50.254;10.960;2023-05-02T14:32:23;98713.34;;;16.81;51.36
15884;BME280;8040;50.254;10.960;2023-05-02T14:34:49;98725.72;;;16.49;51.58
15884;BME280;8040;50.254;10.960;2023-05-02T14:37:14;98728.78;;;16.22;52.18
15884;BME280;8040;50.254;10.960;2023-05-02T14:39:40;98706.94;;;15.89;51.84
15884;BME280;8040;50.254;10.960;2023-05-02T14:42:22;98752.44;;;15.76;52.48
15884;BME280;8040;50.254;10.960;2023-05-02T14:44:47;98701.91;;;15.40;52.01
15884;BME280;8040;50.254;10.960;2023-05-02T14:47:12;98756.94;;;15.55;53.13
15884;BME280;8040;50.254;10.960;2023-05-02T14:49:38;98718.88;;;15.28;53.37
15884;BME280;8040;50.254;10.960;2023-05-02T14:52:03;98714.66;;;15.14;53.90
15884;BME280;8040;50.254;10.960;2023-05-02T14:54:29;98713.56;;;15.15;57.97
15884;BME280;8040;50.254;10.960;2023-05-02T14:56:54;98760.91;;;15.32;64.96
15884;BME280;8040;50.254;10.960;2023-05-02T14:59:20;98762.19;;;14.96;67.63
15884;BME280;8040;50.254;10.960;2023-05-02T15:01:45;98748.13;;;14.72;70.04
15884;BME280;8040;50.254;10.960;2023-05-02T15:04:11;98761.06;;;14.66;71.20
15884;BME280;8040;50.254;10.960;2023-05-02T15:06:36;98757.00;;;14.86;72.61
15884;BME280;8040;50.254;10.960;2023-05-02T15:09:03;98744.84;;;15.00;76.78